Nearby METAR Reports

 

EGEO - Oban, United Kingdom
Distance from station: SSW 18mi, 30km
Updated: 24/06/2021 16:50
NOT Current
Light drizzle, Rain, Mist, Overcast
Light drizzle, Rain, Mist, Overcast
 Wind from W
Wind: W 7 mph , 11 km/h
Temperature: 13°C
Dew Point: 13°C
Humidity: 100%
Barometer: 1017 hPa
Summary: Light drizzle, Rain, Mist
Clouds: Overcast
Visibility: 2 miles , 3 km
Cloud details: Partly cloudy 61 m
Overcast 213 m
2021/06/24 15:50 EGEO 241550Z 26006KT 3000 -DZRA BR SCT002 OVC007 13/13 Q1017
EGPU - Tiree, United Kingdom
Distance from station: WSW 64mi, 103km
Updated: 25/06/2021 01:50
Partly cloudy
Partly cloudy
 Wind from N
Wind: N 29 mph , 46 km/h
Temperature: 10°C
Wind Chill: 6°C
Dew Point: 8°C
Humidity: 88%
Barometer: 1022 hPa
Clouds: Partly cloudy
Visibility: 6 miles , 10 km
Cloud details: Few Clouds 427 m
Partly cloudy 1219 m
2021/06/25 00:50 EGPU 250050Z AUTO 01025KT 9999 FEW014/// SCT040/// 10/08 Q1022
EGPF - Glasgow, United Kingdom
Distance from station: SSE 66mi, 107km
Updated: 25/06/2021 02:20
Overcast
Overcast
 Wind from NE
Wind: NE 7 mph , 11 km/h
Temperature: 12°C
Dew Point: 9°C
Humidity: 82%
Barometer: 1018 hPa
Clouds: Overcast
Visibility: 6 miles , 10 km
Cloud details: Overcast 1372 m
2021/06/25 01:20 EGPF 250120Z AUTO 04006KT 9999 OVC045 12/09 Q1018
 
EGPE - Inverness, United Kingdom
Distance from station: NE 71mi, 114km
Updated: 25/06/2021 02:20
Overcast
Overcast
 Wind from N
Wind: N 10 mph , 17 km/h
Temperature: 10°C
Wind Chill: 8°C
Dew Point: 8°C
Humidity: 88%
Barometer: 1022 hPa
Clouds: Overcast
Visibility: 6 miles , 10 km
Cloud details: Mostly cloudy 671 m
Overcast 1006 m
2021/06/25 01:20 EGPE 250120Z AUTO 35009KT 9999 BKN022/// OVC033/// 10/08 Q1022
EGPI - Islay/Port Ellen, United Kingdom
Distance from station: SSW 81mi, 131km
Updated: 25/06/2021 01:50
Mostly cloudy
Mostly cloudy
 Wind from N
Wind: N 16 mph , 26 km/h
Temperature: 11°C
Dew Point: 8°C
Humidity: 82%
Barometer: 1020 hPa
Clouds: Mostly cloudy
Visibility: 6 miles , 10 km
Cloud details: Few Clouds 579 m
Partly cloudy 701 m
Mostly cloudy 1158 m
2021/06/25 00:50 EGPI 250050Z AUTO 35014KT 9999 FEW019/// SCT023/// BKN038/// 11/08 Q1020
EGPN - Dundee/Riverside, United Kingdom
Distance from station: E 86mi, 138km
Updated: 24/06/2021 20:50
NOT Current
Light rain, Mostly cloudy
Light rain, Mostly cloudy
 Wind from NNE
Wind: NNE 6 mph , 9 km/h
Temperature: 13°C
Dew Point: 12°C
Humidity: 94%
Barometer: 1016 hPa
Summary: Light rain
Clouds: Mostly cloudy
Visibility: 6 miles , 10 km
Cloud details: Partly cloudy 244 m
Mostly cloudy 610 m
Mostly cloudy 1280 m
2021/06/24 19:50 EGPN 241950Z 02005KT 340V070 9999 -RA SCT008 BKN020 BKN042 13/12 Q1016
 
EGPK - Prestwick, United Kingdom
Distance from station: SSE 88mi, 141km
Updated: 25/06/2021 02:20
Light rain, Overcast
Light rain, Overcast
 Wind from varies
Wind: varies 2 mph , 4 km/h
Temperature: 12°C
Dew Point: 10°C
Humidity: 88%
Barometer: 1018 hPa
Summary: Light rain
Clouds: Overcast
Visibility: 6 miles , 10 km
Cloud details: Overcast 396 m
2021/06/25 01:20 EGPK 250120Z AUTO VRB02KT 9999 -RA OVC013/// 12/10 Q1018
EGPH - Edinburgh, United Kingdom
Distance from station: SE 89mi, 143km
Updated: 25/06/2021 02:20
Light rain, Mostly cloudy
Light rain, Mostly cloudy
 Wind from NNE
Wind: NNE 2 mph , 4 km/h
Temperature: 11°C
Dew Point: 10°C
Humidity: 94%
Barometer: 1018 hPa
Summary: Light rain
Clouds: Mostly cloudy
Visibility: 6 miles , 10 km
Cloud details: Few Clouds 122 m
Mostly cloudy 610 m
2021/06/25 01:20 EGPH 250120Z 02002KT 9999 -RA FEW004 BKN020 11/10 Q1018
EGQK - RAF Kinloss, United Kingdom
Distance from station: NE 90mi, 144km
Updated: 25/06/2021 01:50
Mostly cloudy
Mostly cloudy
 Wind from N
Wind: N 21 mph , 33 km/h
Temperature: 10°C
Wind Chill: 6°C
Dew Point: 8°C
Humidity: 88%
Barometer: 1021 hPa
Clouds: Mostly cloudy
Cloud details: Few Clouds 518 m
Mostly cloudy 1189 m
2021/06/25 00:50 EGQK 250050Z AUTO 35018KT //// FEW017/// BKN039/// 10/08 Q1021
 
EGEC - Campbeltown, United Kingdom
Distance from station: S 90mi, 145km
Updated: 24/06/2021 16:50
NOT Current
Rain, Mist, Overcast
Rain, Mist, Overcast
 Wind from WSW
Wind: WSW 10 mph , 17 km/h
Temperature: 13°C
Dew Point: 13°C
Humidity: 100%
Barometer: 1018 hPa
Summary: Rain, Mist
Clouds: Overcast
Visibility: 3 miles , 5 km
Cloud details: Overcast 91 m
2021/06/24 15:50 EGEC 241550Z 25009KT 4500 RA BR OVC003 13/13 Q1018
EGQA - Tain Range, United Kingdom
Distance from station: NNE 91mi, 146km
Updated: 24/06/2021 13:50
NOT Current
Light rain, Mostly cloudy
Light rain, Mostly cloudy
 Wind from NW
Wind: NW 7 mph , 11 km/h
Summary: Light rain
Clouds: Mostly cloudy
Visibility: 6 miles , 10 km
Cloud details: Few Clouds 488 m
Mostly cloudy 1097 m
2021/06/24 12:50 EGQA 241250Z 31006KT 9999 -RA FEW016 BKN036 16/// Q1016 RMK BLU
EGQL - RAF Leuchars, United Kingdom
Distance from station: ESE 93mi, 149km
Updated: 25/06/2021 01:50
Rain, Mostly cloudy
Rain, Mostly cloudy
 Wind from W
Wind: W 1 mph , 2 km/h
Temperature: 11°C
Dew Point: 9°C
Humidity: 88%
Barometer: 1018 hPa
Summary: Rain
Clouds: Mostly cloudy
Visibility: 6 miles , 10 km
Cloud details: Mostly cloudy 1463 m
2021/06/25 00:50 EGQL 250050Z 27001KT 9999 RA BKN048 11/09 Q1018 BLU
 
EGPL - Benbecula, United Kingdom
Distance from station: WNW 96mi, 154km
Updated: 25/06/2021 02:20
Overcast
Overcast
 Wind from N
Wind: N 17 mph , 28 km/h
Temperature: 10°C
Wind Chill: 7°C
Dew Point: 6°C
Humidity: 76%
Barometer: 1025 hPa
Clouds: Overcast
Visibility: 6 miles , 10 km
Cloud details: Overcast 1097 m
2021/06/25 01:20 EGPL 250120Z AUTO 01015KT 9999 OVC036/// 10/06 Q1025
EGQS - RAF Lossiemouth, United Kingdom
Distance from station: NE 99mi, 160km
Updated: 25/06/2021 01:50
Mostly cloudy
Mostly cloudy
 Wind from N
Wind: N 22 mph , 35 km/h
Temperature: 10°C
Wind Chill: 6°C
Dew Point: 7°C
Humidity: 82%
Barometer: 1021 hPa
Clouds: Mostly cloudy
Visibility: 6 miles , 10 km
Cloud details: Few Clouds 488 m
Mostly cloudy 1219 m
2021/06/25 00:50 EGQS 250050Z 35019KT 9999 FEW016 BKN040 10/07 Q1021 RMK BLU
EGPO - Stornoway, United Kingdom
Distance from station: NNW 111mi, 179km
Updated: 25/06/2021 02:20
Overcast
Overcast
 Wind from N
Wind: N 17 mph , 28 km/h
Temperature: 9°C
Wind Chill: 6°C
Dew Point: 7°C
Humidity: 87%
Barometer: 1025 hPa
Clouds: Overcast
Visibility: 6 miles , 10 km
Cloud details: Mostly cloudy 1006 m
Overcast 1189 m
2021/06/25 01:20 EGPO 250120Z AUTO 36015KT 9999 BKN033/// OVC039/// 09/07 Q1025
 
EGPD - Aberdeen/Dyce, United Kingdom
Distance from station: ENE 118mi, 190km
Updated: 25/06/2021 01:50
Light drizzle, Overcast
Light drizzle, Overcast
 Wind from NNW
Wind: NNW 18 mph , 30 km/h
Temperature: 10°C
Wind Chill: 7°C
Dew Point: 9°C
Humidity: 94%
Barometer: 1019 hPa
Summary: Light Drizzle
Clouds: Overcast
Visibility: 3 miles , 4 km
Cloud details: Overcast 183 m
2021/06/25 00:50 EGPD 250050Z AUTO 34016KT 4100 -DZ OVC006 10/09 Q1019 REDZ TEMPO 6000 BKN007
EGAE - Eglinton/Londond, United Kingdom
Distance from station: SSW 138mi, 222km
Updated: 24/06/2021 20:20
NOT Current
Mostly cloudy
Mostly cloudy
 Wind from N
Wind: N 13 mph , 20 km/h
Temperature: 13°C
Dew Point: 11°C
Humidity: 88%
Barometer: 1021 hPa
Clouds: Mostly cloudy
Visibility: 6 miles , 10 km
Cloud details: Few Clouds 244 m
Partly cloudy 305 m
Mostly cloudy 701 m
2021/06/24 19:20 EGAE 241920Z 36011KT 9999 FEW008 SCT010 BKN023 13/11 Q1021
EGPC - Wick, United Kingdom
Distance from station: NNE 144mi, 232km
Updated: 25/06/2021 02:20
Overcast
Overcast
 Wind from NNW
Wind: NNW 16 mph , 26 km/h
Temperature: 10°C
Wind Chill: 7°C
Dew Point: 8°C
Humidity: 88%
Barometer: 1021 hPa
Clouds: Overcast
Visibility: 6 miles , 10 km
Cloud details: Few Clouds 366 m
Partly cloudy 488 m
Overcast 853 m
2021/06/25 01:20 EGPC 250120Z AUTO 34014KT 9999 FEW012/// SCT016/// OVC028/// 10/08 Q1021

Metar display script from Saratoga-Weather.org